LITTLE ISLAND AK US NWS current weather conditions

sailwx.info

Wind from 340 at 36 knots gusting 52

Air temperature -6.8° C
Dewpoint -10.6° C

Last reported at 2020-Jan-18 13:32 UTC.
Time now 2020-Jan-18 14:20 UTC

Location: N 58°32' W 135°03'.
View on Google Maps.

See reports from other nearby stations

  
Tides and Currents Weather Stations Pressure Air Temp Water Temp Dewpoint Dewpoint Depression Visibility Wind Speed Wind Dir Waves Ship Positions
date/time (UTC)wind fromknots sea level pressurealtimeterstation pressurevisibilityair tempwater tempwave heightnotes
2020-Jan-18 13:32 340 36 gusting 52 -6.8
2020-Jan-18 13:22 340 39 gusting 52 -6.8
2020-Jan-18 13:13 340 39 gusting 52 -6.8
2020-Jan-18 13:02 340 36 gusting 49 -6.7
2020-Jan-18 12:52 340 38 gusting 51 -6.9
2020-Jan-18 12:42 340 38 gusting 51 -6.9
2020-Jan-18 12:32 350 39 gusting 53 -7.0
2020-Jan-18 12:22 350 36 gusting 51 -7.0
2020-Jan-18 12:12 350 35 gusting 52 -6.9
2020-Jan-18 12:02 350 36 gusting 48 -7.1
2020-Jan-18 11:52 340 38 gusting 49 -7.3
2020-Jan-18 11:42 340 38 gusting 51 -7.4
2020-Jan-18 11:32 340 38 gusting 51 -7.4
2020-Jan-18 11:22 340 35 gusting 47 -7.3
2020-Jan-18 11:12 340 38 gusting 51 -7.5
2020-Jan-18 11:02 340 36 gusting 48 -7.6
2020-Jan-18 10:52 340 36 gusting 48 -7.5
2020-Jan-18 10:42 340 35 gusting 49 -7.5
2020-Jan-18 10:32 340 34 gusting 47 -7.5
2020-Jan-18 10:22 330 34 gusting 48 -7.7
2020-Jan-18 10:12 340 34 gusting 48 -7.6
2020-Jan-18 10:02 340 35 gusting 48 -7.7
2020-Jan-18 09:52 340 35 gusting 51 -7.7
2020-Jan-18 09:42 340 34 gusting 48 -7.7
2020-Jan-18 09:32 340 34 gusting 48 -7.8
2020-Jan-18 09:22 340 34 gusting 47 -7.6
2020-Jan-18 09:12 340 34 gusting 46 -7.8
2020-Jan-18 09:02 340 34 gusting 46 -7.8
2020-Jan-18 08:52 340 34 gusting 47 -7.8
2020-Jan-18 08:42 340 33 gusting 46 -7.8
2020-Jan-18 08:32 340 33 gusting 45 -7.9
2020-Jan-18 08:22 340 34 gusting 46 -7.8
2020-Jan-18 08:12 340 34 gusting 45 -7.9
2020-Jan-18 08:02 340 34 gusting 46 -7.9
2020-Jan-18 07:52 340 34 gusting 48 -7.8
2020-Jan-18 07:42 340 33 gusting 44 -7.7
2020-Jan-18 07:32 340 34 gusting 47 -7.7
2020-Jan-18 07:22 340 32 gusting 49 -7.7
2020-Jan-18 07:12 340 32 gusting 44 -7.8
2020-Jan-18 07:02 340 32 gusting 44 -7.8
2020-Jan-18 06:52 340 32 gusting 44 -8.0
2020-Jan-18 06:42 340 33 gusting 46 -8.1
2020-Jan-18 06:32 340 32 gusting 45 -7.9
2020-Jan-18 06:22 340 29 gusting 41 -7.7
2020-Jan-18 06:12 350 32 gusting 41 -7.8
2020-Jan-18 06:02 340 32 gusting 42 -7.9
2020-Jan-18 05:52 340 32 gusting 42 -7.9
2020-Jan-18 05:42 340 32 gusting 41 -7.8
2020-Jan-18 05:32 340 31 gusting 46 -7.7
2020-Jan-18 05:22 340 29 gusting 41 -7.6
2020-Jan-18 05:12 340 32 gusting 47 -7.9
2020-Jan-18 05:02 340 32 gusting 44 -7.9
2020-Jan-18 04:52 340 32 gusting 42 -7.9
2020-Jan-18 04:42 340 32 gusting 44 -7.8
2020-Jan-18 04:32 340 32 gusting 41 -7.9
2020-Jan-18 04:22 340 32 gusting 41 -7.8
2020-Jan-18 04:12 340 32 gusting 41 -7.8
2020-Jan-18 04:02 340 32 gusting 41 -7.8
2020-Jan-18 03:52 340 32 gusting 41 -7.8
2020-Jan-18 03:42 340 32 gusting 41 -7.8
2020-Jan-18 03:32 340 29 gusting 42 -7.6
2020-Jan-18 03:22 340 29 gusting 40 -7.6
2020-Jan-18 03:12 340 29 gusting 41 -7.6
2020-Jan-18 03:02 340 29 gusting 44 -7.7
2020-Jan-18 02:52 350 29 gusting 39 -7.7
2020-Jan-18 02:42 350 29 gusting 40 -7.7
2020-Jan-18 02:32 350 28 gusting 40 -7.6
2020-Jan-18 02:22 340 29 gusting 40 -7.6
2020-Jan-18 02:12 340 28 gusting 41 -7.6
2020-Jan-18 02:02 340 28 gusting 39 -7.6
2020-Jan-18 01:52 340 28 gusting 39 -7.6
2020-Jan-18 01:42 340 29 gusting 39 -7.7
2020-Jan-18 01:32 340 28 gusting 41 -7.6
2020-Jan-18 01:22 340 29 gusting 40 -7.7
2020-Jan-18 01:12 340 29 gusting 48 -7.6
2020-Jan-18 01:02 340 27 gusting 39 -7.6
2020-Jan-18 00:52 340 27 gusting 39 -7.6
2020-Jan-18 00:42 340 29 gusting 41 -7.8
2020-Jan-18 00:32 350 27 gusting 38 -7.6
2020-Jan-18 00:22 350 28 gusting 40 -7.6
2020-Jan-18 00:12 340 27 gusting 39 -7.7
2020-Jan-17 23:52 350 27 gusting 39 -7.6
2020-Jan-17 23:42 350 27 gusting 39 -7.5
2020-Jan-17 23:32 350 27 gusting 38 -7.6
2020-Jan-17 23:22 340 27 gusting 38 -7.6
2020-Jan-17 23:12 340 27 gusting 38 -7.7
2020-Jan-17 23:02 340 26 gusting 34 -7.6
2020-Jan-17 22:52 340 26 gusting 38 -7.4
2020-Jan-17 22:42 340 26 gusting 35 -7.7
2020-Jan-17 22:32 340 25 gusting 35 -7.6
2020-Jan-17 22:22 340 25 gusting 34 -7.6
2020-Jan-17 22:12 340 25 gusting 36 -7.7
2020-Jan-17 22:02 340 26 gusting 34 -7.8
2020-Jan-17 21:52 340 26 gusting 39 -7.8
2020-Jan-17 21:42 340 26 gusting 34 -7.8
2020-Jan-17 21:32 350 27 gusting 39 -7.7
2020-Jan-17 21:22 340 26 gusting 34 -7.7
2020-Jan-17 21:12 340 26 gusting 36 -7.6
2020-Jan-17 21:02 340 26 gusting 36 -7.7
2020-Jan-17 20:53 350 24 gusting 41 -7.8
2020-Jan-17 20:42 340 27 gusting 38 -7.7
2020-Jan-17 20:32 340 26 gusting 36 -7.6
2020-Jan-17 20:22 340 25 gusting 34 -7.6
2020-Jan-17 20:12 340 27 gusting 38 -7.7
2020-Jan-17 20:02 340 26 gusting 38 -7.7
2020-Jan-17 19:52 340 25 gusting 36 -7.8
2020-Jan-17 19:42 350 24 gusting 34 -7.7
2020-Jan-17 19:33 360 20 gusting 33 -7.7
2020-Jan-17 19:23 360 19 gusting 35 -7.9
2020-Jan-17 19:12 010 15 gusting 29 -8.0
2020-Jan-17 19:02 010 15 gusting 22 -8.0
2020-Jan-17 18:52 010 14 gusting 24 -8.0
2020-Jan-17 18:42 360 14 gusting 26 -7.9
2020-Jan-17 18:32 010 15 gusting 26 -8.1
2020-Jan-17 18:22 360 17 gusting 25 -8.3
2020-Jan-17 18:12 010 18 gusting 26 -8.1
2020-Jan-17 18:02 360 17 gusting 27 -7.9
2020-Jan-17 17:52 360 18 gusting 27 -8.0
2020-Jan-17 17:42 360 18 gusting 27 -8.1
2020-Jan-17 17:32 360 19 gusting 27 -8.1
2020-Jan-17 17:22 360 19 gusting 26 -8.1
2020-Jan-17 17:12 360 20 gusting 27 -8.2
2020-Jan-17 17:02 340 20 gusting 31 -8.0
2020-Jan-17 16:52 350 20 gusting 31 -8.0
2020-Jan-17 16:42 360 20 gusting 28 -7.9
2020-Jan-17 16:32 360 18 gusting 26 -7.9
2020-Jan-17 16:22 360 18 gusting 26 -8.1
2020-Jan-17 16:13 360 20 gusting 29 -8.1
2020-Jan-17 16:02 360 21 gusting 29 -8.1
2020-Jan-17 15:52 360 21 gusting 28 -8.0
2020-Jan-17 15:42 360 22 gusting 29 -8.0
2020-Jan-17 15:32 360 19 gusting 28 -7.9
2020-Jan-17 15:22 010 18 gusting 29 -7.8
2020-Jan-17 15:12 010 18 gusting 26 -8.0
2020-Jan-17 15:02 010 18 gusting 27 -7.9
2020-Jan-17 14:52 010 17 gusting 27 -7.8
2020-Jan-17 14:42 020 14 gusting 27 -7.7
2020-Jan-17 14:32 020 13 gusting 25 -8.0
2020-Jan-17 14:22 030 13 gusting 22 -8.0
2020-Jan-17 14:12 030 13 gusting 20 -8.1
2020-Jan-17 14:02 020 14 gusting 22 -8.1
2020-Jan-17 13:52 030 14 gusting 24 -8.0
2020-Jan-17 13:42 020 17 gusting 25 -7.8
2020-Jan-17 13:32 020 17 gusting 27 -7.8
2020-Jan-17 13:22 010 17 gusting 29 -7.9
2020-Jan-17 13:12 010 18 gusting 27 -7.7
2020-Jan-17 13:02 010 18 gusting 28 -7.9
2020-Jan-17 12:52 010 18 gusting 27 -8.0
2020-Jan-17 12:42 360 19 gusting 28 -7.9
2020-Jan-17 12:32 010 19 gusting 28 -8.0
2020-Jan-17 12:22 010 20 gusting 28 -7.9
2020-Jan-17 12:12 360 20 gusting 28 -8.0
2020-Jan-17 12:02 010 20 gusting 28 -8.0
2020-Jan-17 11:52 010 20 gusting 29 -7.9
2020-Jan-17 11:42 360 20 gusting 31 -8.0
2020-Jan-17 11:32 010 20 gusting 29 -8.1
2020-Jan-17 11:22 360 21 gusting 31 -8.0
2020-Jan-17 11:12 360 24 gusting 34 -8.0
2020-Jan-17 11:02 360 21 gusting 31 -8.0
2020-Jan-17 10:52 360 20 gusting 32 -8.0
2020-Jan-17 10:42 010 20 gusting 31 -7.9
2020-Jan-17 10:32 010 20 gusting 29 -7.8
2020-Jan-17 10:22 010 20 gusting 29 -7.9
2020-Jan-17 10:13 360 20 gusting 31 -7.8
2020-Jan-17 10:02 360 21 gusting 32 -7.9
2020-Jan-17 09:52 360 20 gusting 32 -7.9
2020-Jan-17 09:42 010 20 gusting 31 -7.9
2020-Jan-17 09:32 010 20 gusting 28 -7.9
2020-Jan-17 09:22 010 20 gusting 32 -7.7
2020-Jan-17 09:12 010 20 gusting 33 -7.8
2020-Jan-17 09:02 360 21 gusting 33 -7.7
2020-Jan-17 08:52 360 21 gusting 32 -7.7
2020-Jan-17 08:42 360 20 gusting 31 -7.8
2020-Jan-17 08:32 360 22 gusting 34 -7.8
2020-Jan-17 08:22 360 21 gusting 33 -7.6
2020-Jan-17 08:12 360 22 gusting 32 -7.7
2020-Jan-17 08:02 360 24 gusting 33 -7.7
2020-Jan-17 07:52 360 27 gusting 36 -7.5
2020-Jan-17 07:42 360 25 gusting 41 -7.5
2020-Jan-17 07:32 360 26 gusting 36 -7.5
2020-Jan-17 07:22 360 26 gusting 38 -7.6
2020-Jan-17 07:12 360 25 gusting 36 -7.5
2020-Jan-17 07:02 360 25 gusting 34 -7.6
2020-Jan-17 06:52 360 26 gusting 34 -7.5
2020-Jan-17 06:42 360 26 gusting 35 -7.6
2020-Jan-17 06:32 360 27 gusting 36 -7.6
2020-Jan-17 06:22 360 27 gusting 38 -7.5
2020-Jan-17 06:12 360 26 gusting 40 -7.5
2020-Jan-17 06:02 360 27 gusting 38 -7.3
2020-Jan-17 05:52 360 27 gusting 40 -7.5
2020-Jan-17 05:42 360 27 gusting 38 -7.5
2020-Jan-17 05:32 360 27 gusting 41 -7.3
2020-Jan-17 05:22 360 28 gusting 40 -7.4
2020-Jan-17 05:12 010 27 gusting 40 -7.3
2020-Jan-17 05:02 360 27 gusting 36 -7.3
2020-Jan-17 04:52 360 28 gusting 39 -7.2
2020-Jan-17 04:42 360 26 gusting 35 -7.2
2020-Jan-17 04:32 360 27 gusting 40 -7.1
2020-Jan-17 04:22 360 27 gusting 39 -7.0
2020-Jan-17 04:12 360 27 gusting 40 -6.9
2020-Jan-17 04:02 360 29 gusting 40 -7.0
2020-Jan-17 03:52 360 28 gusting 42 -6.8
2020-Jan-17 03:42 360 27 gusting 41 -6.9
2020-Jan-17 03:32 360 27 gusting 44 -6.7
2020-Jan-17 03:22 360 27 gusting 36 -6.6
2020-Jan-17 03:12 360 27 gusting 41 -6.6
2020-Jan-17 03:02 360 27 gusting 39 -6.6
2020-Jan-17 02:52 360 27 gusting 49 -6.6
2020-Jan-17 02:42 360 31 gusting 41 -6.8
2020-Jan-17 02:32 360 29 gusting 41 -6.8
2020-Jan-17 02:22 360 27 gusting 38 -6.6
2020-Jan-17 02:12 360 27 gusting 40 -6.6
2020-Jan-17 02:02 360 27 gusting 38 -6.4
2020-Jan-17 01:52 010 27 gusting 38 -6.5
2020-Jan-17 01:42 360 28 gusting 40 -6.5
2020-Jan-17 01:32 360 29 gusting 40 -6.7
2020-Jan-17 01:22 360 29 gusting 40 -6.7
2020-Jan-17 01:12 010 27 gusting 40 -6.6
2020-Jan-17 01:02 360 28 gusting 41 -6.4
2020-Jan-17 00:52 360 28 gusting 41 -6.7
2020-Jan-17 00:42 360 31 gusting 44 -6.6
2020-Jan-17 00:32 360 28 gusting 41 -6.7
2020-Jan-17 00:22 360 29 gusting 41 -6.8
2020-Jan-17 00:12 360 28 gusting 40 -6.7
2020-Jan-16 23:52 360 29 gusting 41 -6.7
2020-Jan-16 23:42 360 31 gusting 42 -6.8
2020-Jan-16 23:32 360 31 gusting 41 -6.8
2020-Jan-16 23:22 360 31 gusting 45 -6.9
2020-Jan-16 23:12 360 31 gusting 41 -6.9
2020-Jan-16 23:02 360 29 gusting 41 -6.8
2020-Jan-16 22:52 360 29 gusting 49 -6.6
2020-Jan-16 22:42 360 32 gusting 41 -6.8
2020-Jan-16 22:32 360 32 gusting 45 -6.9
2020-Jan-16 22:22 360 32 gusting 48 -6.8
2020-Jan-16 22:12 360 28 gusting 41 -6.7
2020-Jan-16 22:02 360 32 gusting 48 -6.7
2020-Jan-16 21:52 360 32 gusting 44 -6.7
2020-Jan-16 21:42 360 33 gusting 45 -6.6
2020-Jan-16 21:32 360 34 gusting 46 -6.7
2020-Jan-16 21:22 360 32 gusting 45 -6.7
2020-Jan-16 21:12 360 33 gusting 48 -6.6
2020-Jan-16 21:02 360 32 gusting 45 -6.5
2020-Jan-16 20:52 360 34 gusting 45 -6.6
2020-Jan-16 20:42 360 34 gusting 46 -6.6
2020-Jan-16 20:32 360 33 gusting 42 -6.5
2020-Jan-16 20:22 360 34 gusting 46 -6.5
2020-Jan-16 20:12 360 34 gusting 45 -6.3
2020-Jan-16 20:02 360 34 gusting 46 -6.4
2020-Jan-16 19:52 360 34 gusting 47 -6.5
2020-Jan-16 19:42 360 34 gusting 44 -6.3
2020-Jan-16 19:33 360 34 gusting 46 -6.3
2020-Jan-16 19:23 360 32 gusting 41 -6.5
2020-Jan-16 19:13 360 32 gusting 44 -6.4
2020-Jan-16 19:02 360 33 gusting 46 -6.4
2020-Jan-16 18:52 360 32 gusting 46 -6.4
2020-Jan-16 18:42 360 32 gusting 44 -6.4
2020-Jan-16 18:32 360 33 gusting 42 -6.5
2020-Jan-16 18:22 360 33 gusting 48 -6.4
2020-Jan-16 18:12 360 32 gusting 47 -6.3
2020-Jan-16 18:02 360 31 gusting 44 -6.2
2020-Jan-16 17:52 360 32 gusting 46 -6.3
2020-Jan-16 17:42 010 27 gusting 41 -6.1
2020-Jan-16 17:32 360 31 gusting 46 -6.2
2020-Jan-16 17:22 010 28 gusting 41 -6.2
2020-Jan-16 17:12 360 31 gusting 46 -6.2
2020-Jan-16 17:02 360 35 gusting 48 -6.4
2020-Jan-16 16:52 360 34 gusting 47 -6.4
2020-Jan-16 16:42 360 34 gusting 46 -6.3
2020-Jan-16 16:32 360 34 gusting 49 -6.4
2020-Jan-16 16:22 360 34 gusting 47 -6.3
2020-Jan-16 16:12 360 34 gusting 47 -6.1
2020-Jan-16 16:02 360 35 gusting 48 -6.2
2020-Jan-16 15:52 360 35 gusting 48 -6.2
2020-Jan-16 15:42 360 32 gusting 46 -6.2
2020-Jan-16 15:32 360 35 gusting 48 -6.3
2020-Jan-16 15:22 360 34 gusting 49 -6.0
2020-Jan-16 15:12 360 35 gusting 47 -6.1
2020-Jan-16 15:02 360 35 gusting 48 -6.1
2020-Jan-16 14:52 360 33 gusting 46 -6.0
2020-Jan-16 14:42 360 33 gusting 44 -6.1
2020-Jan-16 14:32 360 34 gusting 46 -6.1
2020-Jan-16 14:22 360 33 gusting 41 -6.1
2020-Jan-16 14:12 360 32 gusting 45 -6.1
2020-Jan-16 14:02 360 33 gusting 44 -6.3